createdAt,value
2023-05-19T00:01:29.675Z,10.50
2023-05-19T00:06:31.764Z,10.43
2023-05-19T00:11:28.547Z,10.38
2023-05-19T00:16:25.510Z,10.38
2023-05-19T00:21:22.021Z,10.33
2023-05-19T00:26:18.489Z,10.32
2023-05-19T00:31:14.904Z,10.30
2023-05-19T00:36:11.259Z,10.29
2023-05-19T00:41:07.648Z,10.28
2023-05-19T00:46:04.740Z,10.27
2023-05-19T00:51:04.838Z,10.26
2023-05-19T00:56:01.703Z,10.25
2023-05-19T01:01:03.530Z,10.21
2023-05-19T01:06:05.102Z,10.19
2023-05-19T01:11:01.607Z,10.18
2023-05-19T01:16:00.029Z,10.17
2023-05-19T01:21:06.780Z,10.15
2023-05-19T01:26:10.040Z,10.13
2023-05-19T01:31:07.280Z,10.13
2023-05-19T01:36:03.785Z,10.10
2023-05-19T01:41:00.183Z,10.08
2023-05-19T01:45:58.561Z,10.07
2023-05-19T01:50:57.279Z,10.03
2023-05-19T01:55:54.479Z,9.98
2023-05-19T02:00:52.706Z,9.94
2023-05-19T02:05:53.488Z,9.90
2023-05-19T02:10:52.315Z,9.88
2023-05-19T02:15:48.755Z,9.86
2023-05-19T02:20:45.226Z,9.85
2023-05-19T02:25:41.593Z,9.86
2023-05-19T02:30:38.013Z,9.86
2023-05-19T02:35:34.390Z,9.89
2023-05-19T02:40:30.921Z,9.89
2023-05-19T02:45:28.638Z,9.89
2023-05-19T02:50:26.091Z,9.90
2023-05-19T02:55:22.420Z,9.92
2023-05-19T03:00:18.820Z,9.95
2023-05-19T03:05:15.212Z,9.94
2023-05-19T03:10:11.622Z,9.98
2023-05-19T03:15:08.476Z,9.97
2023-05-19T03:20:05.556Z,9.97
2023-05-19T03:25:02.294Z,9.97
2023-05-19T03:29:58.611Z,9.99
2023-05-19T03:34:58.378Z,10.00
2023-05-19T03:39:54.758Z,10.02
2023-05-19T03:44:51.090Z,10.00
2023-05-19T03:49:47.455Z,9.99
2023-05-19T03:54:43.875Z,10.04
2023-05-19T03:59:41.402Z,10.05
2023-05-19T04:04:37.976Z,10.09
2023-05-19T04:09:37.646Z,10.16
2023-05-19T04:14:34.041Z,10.21
2023-05-19T04:19:31.986Z,10.30
2023-05-19T04:24:28.389Z,10.33
2023-05-19T04:29:24.701Z,10.42
2023-05-19T04:34:21.709Z,10.50
2023-05-19T04:39:18.055Z,10.59
2023-05-19T04:44:18.056Z,10.66
2023-05-19T04:49:14.455Z,10.74
2023-05-19T04:54:10.884Z,10.81
2023-05-19T04:59:07.333Z,10.81
2023-05-19T05:04:03.812Z,10.89
2023-05-19T05:09:00.469Z,10.98
2023-05-19T05:13:58.248Z,11.01
2023-05-19T05:18:54.889Z,11.08
2023-05-19T05:23:51.937Z,11.16
2023-05-19T05:28:48.731Z,11.24
2023-05-19T05:33:45.161Z,11.36
2023-05-19T05:38:44.539Z,11.48
2023-05-19T05:43:41.071Z,11.58
2023-05-19T05:48:37.595Z,11.71
2023-05-19T05:53:34.429Z,11.85
2023-05-19T05:58:32.940Z,11.98
2023-05-19T06:03:29.326Z,12.25
2023-05-19T06:08:25.922Z,12.68
2023-05-19T06:13:24.160Z,13.10
2023-05-19T06:18:20.646Z,13.36
2023-05-19T06:23:19.315Z,13.41
2023-05-19T06:28:15.677Z,13.27
2023-05-19T06:33:12.013Z,13.24
2023-05-19T06:38:11.330Z,13.33
2023-05-19T06:43:07.690Z,13.44
2023-05-19T06:48:04.101Z,13.53
2023-05-19T06:53:00.613Z,13.59
2023-05-19T06:57:56.950Z,13.65
2023-05-19T07:02:53.441Z,13.79
2023-05-19T07:07:49.909Z,14.03
2023-05-19T07:12:46.237Z,14.19
2023-05-19T07:17:42.661Z,14.39
2023-05-19T07:22:39.949Z,14.53
2023-05-19T07:27:36.901Z,14.51
2023-05-19T07:32:33.349Z,14.55
2023-05-19T07:37:29.703Z,14.69
2023-05-19T07:42:26.070Z,14.81
2023-05-19T07:47:22.476Z,14.88
2023-05-19T07:52:21.538Z,14.94
2023-05-19T07:57:18.908Z,15.07
2023-05-19T08:02:15.439Z,15.25
2023-05-19T08:07:15.788Z,15.37
2023-05-19T08:12:12.194Z,15.43
2023-05-19T08:17:08.566Z,15.50
2023-05-19T08:22:04.924Z,15.53
2023-05-19T08:27:01.240Z,15.63
2023-05-19T08:31:58.377Z,15.78
2023-05-19T08:37:03.159Z,15.89
2023-05-19T08:41:59.520Z,15.96
2023-05-19T08:46:58.547Z,16.09
2023-05-19T08:52:03.745Z,16.16
2023-05-19T08:57:00.081Z,16.14
2023-05-19T09:01:56.461Z,16.12
2023-05-19T09:06:52.904Z,16.13
2023-05-19T09:11:49.350Z,16.15
2023-05-19T09:16:48.148Z,16.22
2023-05-19T09:21:45.782Z,16.26
2023-05-19T09:26:42.741Z,16.29
2023-05-19T09:31:39.623Z,16.33
2023-05-19T09:36:36.385Z,16.41
2023-05-19T09:41:32.773Z,16.42
2023-05-19T09:46:30.133Z,16.49
2023-05-19T09:51:29.540Z,16.54
2023-05-19T09:56:27.254Z,16.51
2023-05-19T10:01:23.656Z,16.46
2023-05-19T10:06:20.644Z,16.45
2023-05-19T10:11:17.081Z,16.56
2023-05-19T10:16:13.548Z,16.63
2023-05-19T10:21:09.944Z,16.66
2023-05-19T10:26:06.842Z,16.72
2023-05-19T10:31:04.452Z,16.75
2023-05-19T10:36:12.645Z,16.79
2023-05-19T10:41:27.662Z,16.86
2023-05-19T10:46:25.604Z,16.94
2023-05-19T10:51:28.360Z,16.91
2023-05-19T10:56:32.951Z,16.97
2023-05-19T11:01:33.149Z,16.92
2023-05-19T11:06:30.197Z,17.03
2023-05-19T11:11:26.975Z,17.09
2023-05-19T11:16:29.852Z,17.13
2023-05-19T11:21:42.601Z,17.21
2023-05-19T11:26:43.010Z,17.23
2023-05-19T11:31:39.544Z,17.25
2023-05-19T11:36:37.273Z,17.33
2023-05-19T11:41:38.340Z,17.35
2023-05-19T11:46:34.705Z,17.43
2023-05-19T11:51:32.592Z,17.49
2023-05-19T11:56:33.670Z,17.58
2023-05-19T12:01:31.751Z,17.67
2023-05-19T12:06:28.829Z,17.77
2023-05-19T12:11:25.246Z,17.82
2023-05-19T12:16:21.824Z,17.88
2023-05-19T12:21:18.209Z,17.94
2023-05-19T12:26:14.593Z,17.96
2023-05-19T12:31:11.334Z,18.00
2023-05-19T12:36:08.529Z,18.04
2023-05-19T12:41:06.350Z,18.14
2023-05-19T12:46:12.125Z,18.13
2023-05-19T12:51:08.552Z,18.08
2023-05-19T12:56:14.711Z,18.09
2023-05-19T13:01:15.857Z,18.16
2023-05-19T13:06:12.338Z,18.32
2023-05-19T13:11:09.107Z,18.48
2023-05-19T13:16:05.709Z,18.52
2023-05-19T13:21:02.095Z,18.49
2023-05-19T13:25:59.314Z,18.43
2023-05-19T13:30:55.801Z,18.37
2023-05-19T13:35:52.202Z,18.38
2023-05-19T13:40:48.593Z,18.38
2023-05-19T13:45:45.021Z,18.39
2023-05-19T13:50:41.388Z,18.49
2023-05-19T13:55:40.161Z,18.53
2023-05-19T14:00:36.814Z,18.49
2023-05-19T14:05:33.458Z,18.35
2023-05-19T14:10:29.815Z,18.34
2023-05-19T14:15:26.676Z,18.37
2023-05-19T14:20:23.082Z,18.42
2023-05-19T14:25:19.404Z,18.48
2023-05-19T14:30:15.779Z,18.55
2023-05-19T14:35:12.244Z,18.57
2023-05-19T14:40:08.776Z,18.54
2023-05-19T14:45:05.409Z,18.60
2023-05-19T14:50:01.822Z,18.71
2023-05-19T14:54:58.218Z,18.87
2023-05-19T14:59:54.536Z,18.97
2023-05-19T15:04:50.869Z,18.91
2023-05-19T15:09:47.216Z,18.92
2023-05-19T15:14:43.621Z,18.91
2023-05-19T15:19:42.659Z,18.88
2023-05-19T15:24:39.182Z,18.88
2023-05-19T15:29:35.816Z,18.90
2023-05-19T15:34:32.263Z,18.93
2023-05-19T15:39:29.751Z,18.88
2023-05-19T15:44:29.086Z,18.83
2023-05-19T15:49:25.697Z,18.76
2023-05-19T15:54:22.182Z,18.64
2023-05-19T15:59:21.724Z,18.59
2023-05-19T16:04:18.146Z,18.54
2023-05-19T16:09:14.613Z,18.47
2023-05-19T16:14:11.065Z,18.46
2023-05-19T16:19:07.465Z,18.43
2023-05-19T16:24:04.135Z,18.46
2023-05-19T16:29:00.629Z,18.52
2023-05-19T16:33:57.032Z,18.52
2023-05-19T16:38:54.118Z,18.48
2023-05-19T16:43:50.504Z,18.40
2023-05-19T16:48:46.894Z,18.27
2023-05-19T16:53:43.359Z,18.15
2023-05-19T16:58:39.724Z,18.05
2023-05-19T17:03:36.134Z,17.98
2023-05-19T17:08:32.593Z,17.94
2023-05-19T17:13:36.065Z,17.94
2023-05-19T17:18:32.406Z,17.90
2023-05-19T17:23:28.918Z,17.89
2023-05-19T17:28:25.372Z,17.87
2023-05-19T17:33:21.786Z,17.80
2023-05-19T17:38:18.109Z,17.73
2023-05-19T17:43:14.482Z,17.72
2023-05-19T17:48:11.667Z,17.66
2023-05-19T17:53:10.470Z,17.59
2023-05-19T17:58:06.901Z,17.48
2023-05-19T18:03:04.882Z,17.40
2023-05-19T18:08:05.004Z,17.33
2023-05-19T18:13:04.091Z,17.21
2023-05-19T18:18:01.048Z,17.18
2023-05-19T18:23:00.034Z,17.11
2023-05-19T18:27:56.502Z,17.01
2023-05-19T18:32:52.967Z,16.99
2023-05-19T18:37:49.424Z,16.96
2023-05-19T18:42:45.879Z,16.88
2023-05-19T18:47:42.498Z,16.77
2023-05-19T18:52:38.899Z,16.61
2023-05-19T18:57:35.236Z,16.55
2023-05-19T19:02:31.708Z,16.51
2023-05-19T19:07:28.048Z,16.45
2023-05-19T19:12:24.406Z,16.40
2023-05-19T19:17:20.914Z,16.34
2023-05-19T19:22:17.323Z,16.25
2023-05-19T19:27:16.187Z,16.22
2023-05-19T19:32:12.565Z,16.19
2023-05-19T19:37:08.958Z,16.12
2023-05-19T19:42:05.393Z,16.06
2023-05-19T19:47:05.919Z,16.04
2023-05-19T19:52:02.282Z,15.97
2023-05-19T19:56:58.677Z,15.90
2023-05-19T20:01:55.099Z,15.87
2023-05-19T20:06:51.529Z,15.81
2023-05-19T20:11:47.886Z,15.72
2023-05-19T20:16:44.702Z,15.66
2023-05-19T20:21:41.137Z,15.56
2023-05-19T20:26:37.476Z,15.47
2023-05-19T20:31:33.874Z,15.33
2023-05-19T20:36:30.234Z,15.26
2023-05-19T20:41:26.800Z,15.19
2023-05-19T20:46:23.143Z,15.10
2023-05-19T20:51:19.485Z,15.02
2023-05-19T20:56:15.996Z,14.94
2023-05-19T21:01:12.392Z,14.86
2023-05-19T21:06:08.839Z,14.78
2023-05-19T21:11:06.419Z,14.73
2023-05-19T21:16:02.768Z,14.68
2023-05-19T21:21:01.428Z,14.63
2023-05-19T21:25:59.544Z,14.56
2023-05-19T21:30:58.110Z,14.47
2023-05-19T21:35:54.445Z,14.41
2023-05-19T21:40:51.185Z,14.36
2023-05-19T21:45:47.563Z,14.27
2023-05-19T21:50:45.982Z,14.21
2023-05-19T21:55:42.611Z,14.12
2023-05-19T22:00:38.952Z,14.10
2023-05-19T22:05:40.272Z,14.05
2023-05-19T22:10:37.273Z,14.01
2023-05-19T22:15:33.740Z,13.90
2023-05-19T22:20:30.200Z,13.89
2023-05-19T22:25:26.864Z,13.85
2023-05-19T22:30:23.235Z,13.80
2023-05-19T22:35:19.609Z,13.76
2023-05-19T22:40:16.183Z,13.72
2023-05-19T22:45:12.577Z,13.65
2023-05-19T22:50:12.425Z,13.62
2023-05-19T22:55:08.983Z,13.55
2023-05-19T23:00:05.567Z,13.49
2023-05-19T23:05:02.023Z,13.46
2023-05-19T23:09:58.382Z,13.46
2023-05-19T23:14:54.759Z,13.43
2023-05-19T23:19:51.524Z,13.39
2023-05-19T23:24:47.913Z,13.36
2023-05-19T23:29:48.690Z,13.28
2023-05-19T23:34:46.795Z,13.26
2023-05-19T23:39:43.249Z,13.21
2023-05-19T23:44:39.624Z,13.21
2023-05-19T23:49:40.029Z,13.18
2023-05-19T23:54:36.447Z,13.11
2023-05-19T23:59:32.842Z,13.10
